Data for 06/26/2014

Time Sea-Level Adjusted Pressure Absolute Pressure Temperature Relative Humidity Dew Point   
(mb) (inHg) (mb) (inHg) (C) (F) (%) (C) (F)
00:05 1014 29.94 843 24.89 13.2 55.8 76 9.1 48.5
00:10 1014 29.94 844 24.92 13.2 55.7 76 9.1 48.3
00:15 1014 29.94 844 24.92 13.2 55.7 77 9.3 48.7
00:20 1014 29.94 844 24.92 13.1 55.6 82 10 50.1
00:25 1014 29.94 844 24.92 12.8 55.1 83 10.1 50.1
00:30 1014 29.94 844 24.92 12.7 54.8 85 10.2 50.3
00:35 1014 29.94 844 24.92 12.6 54.7 85 10.2 50.3
00:40 1014 29.94 844 24.92 12.5 54.4 87 10.3 50.6
00:45 1014 29.94 844 24.92 12.3 54.1 88 10.3 50.5
00:50 1014 29.94 844 24.92 12.2 53.9 87 10.1 50.3
00:55 1014 29.94 844 24.92 12.1 53.9 88 10.3 50.5
01:00 1014 29.94 844 24.92 12.1 53.8 86 9.9 49.8
01:05 1014 29.94 844 24.92 12 53.5 86 9.6 49.3
01:10 1014 29.94 844 24.92 11.9 53.5 86 9.7 49.5
01:15 1014 29.94 843 24.89 12 53.6 85 9.6 49.3
01:20 1014 29.94 843 24.89 12.1 53.7 86 9.9 49.7
01:25 1014 29.94 843 24.89 12 53.6 85 9.5 49.1
01:30 1014 29.94 843 24.89 11.6 52.9 85 9.1 48.5
01:35 1014 29.94 843 24.89 11.3 52.3 86 9 48.2
01:40 1014 29.94 843 24.89 11.1 52 83 8.4 47.2
01:45 1014 29.94 843 24.89 11 51.8 84 8.4 47.1
01:50 1014 29.94 843 24.89 10.9 51.6 84 8.3 47
01:55 1014 29.94 843 24.89 10.7 51.3 85 8.3 47
02:00 1014 29.94 843 24.89 10.5 50.9 87 8.4 47.1
02:05 1014 29.94 843 24.89 10.7 51.2 87 8.6 47.5
02:10 1014 29.94 843 24.89 11 51.9 85 8.6 47.5
02:15 1014 29.94 843 24.89 10.7 51.3 86 8.4 47.2
02:20 1014 29.94 843 24.89 10.6 51.1 87 8.5 47.3
02:25 1014 29.94 843 24.89 10.8 51.5 85 8.4 47.1
02:30 1013 29.91 843 24.89 10.9 51.7 84 8.4 47.1
02:35 1013 29.91 842 24.86 10.8 51.5 83 8 46.5
02:40 1013 29.91 842 24.86 10.8 51.5 83 8 46.5
02:45 1013 29.91 842 24.86 11.2 52.1 81 8 46.5
02:50 1013 29.91 842 24.86 11.4 52.4 79 7.9 46.3
02:55 1013 29.91 842 24.86 11.3 52.4 79 7.9 46.2
03:00 1013 29.91 842 24.86 11.4 52.5 80 8 46.4
03:05 1013 29.91 842 24.86 11.1 52.1 80 7.9 46.2
03:10 1013 29.91 842 24.86 11 51.8 81 7.9 46.2
03:15 1013 29.91 842 24.86 10.9 51.7 81 7.7 45.9
03:20 1013 29.91 842 24.86 11.2 52.1 77 7.4 45.3
03:25 1013 29.91 842 24.86 11.3 52.3 78 7.6 45.7
03:30 1013 29.91 842 24.86 11.3 52.4 78 7.6 45.7
03:35 1014 29.94 843 24.89 11.1 52 82 8.1 46.6
03:40 1015 29.97 844 24.92 10.9 51.6 85 8.5 47.3
03:45 1015 29.97 844 24.92 11.2 52.2 83 8.5 47.3
03:50 1015 29.97 844 24.92 11.5 52.8 84 9 48.2
03:55 1015 29.97 844 24.92 11.6 52.9 86 9.3 48.8
04:00 1014 29.94 844 24.92 11.4 52.5 88 9.4 48.9
04:05 1014 29.94 843 24.89 10.9 51.6 90 9.3 48.7
04:10 1014 29.94 843 24.89 10.8 51.4 90 9.2 48.5
04:15 1014 29.94 843 24.89 10.7 51.3 90 9.2 48.5
04:20 1014 29.94 843 24.89 10.7 51.2 90 9 48.3
04:25 1014 29.94 843 24.89 10.8 51.5 90 9.2 48.6
04:30 1013 29.91 843 24.89 10.8 51.5 90 9.2 48.5
04:35 1013 29.91 843 24.89 10.9 51.6 89 9.2 48.6
04:40 1013 29.91 842 24.86 10.9 51.6 90 9.3 48.8
04:45 1013 29.91 842 24.86 10.8 51.4 91 9.4 48.9
04:50 1013 29.91 842 24.86 10.8 51.5 90 9.3 48.8
04:55 1012 29.88 841 24.83 11.3 52.3 87 9.2 48.6
05:00 1012 29.88 841 24.83 11.7 53 85 9.3 48.8
05:05 1012 29.88 841 24.83 12 53.6 83 9.3 48.7
05:10 1012 29.88 841 24.83 12.4 54.3 82 9.4 48.9
05:15 1012 29.88 841 24.83 12.4 54.4 81 9.4 48.9
05:20 1012 29.88 841 24.83 12.6 54.7 80 9.2 48.6
05:25 1012 29.88 841 24.83 12.8 55 78 9.1 48.4
05:30 1012 29.88 841 24.83 13.1 55.5 75 8.8 47.8
05:35 1012 29.88 841 24.83 13.2 55.8 76 9.1 48.5
05:40 1012 29.88 841 24.83 13 55.4 79 9.5 49.1
05:45 1012 29.88 841 24.83 12.7 54.8 79 9.1 48.5
05:50 1012 29.88 841 24.83 12.9 55.1 78 9.1 48.5
05:55 1012 29.88 841 24.83 12.9 55.2 78 9.2 48.6
06:00 1011 29.85 841 24.83 13 55.3 79 9.4 48.8
06:05 1011 29.85 841 24.83 12.9 55.2 79 9.4 48.9
06:10 1011 29.85 841 24.83 12.9 55.2 79 9.3 48.7
06:15 1011 29.85 841 24.83 13.1 55.5 76 9 48.2
06:20 1011 29.85 841 24.83 13.3 55.9 76 9.2 48.6
06:25 1011 29.85 841 24.83 13.4 56 76 9.2 48.5
06:30 1012 29.88 841 24.83 13.5 56.3 74 9.1 48.4
06:35 1012 29.88 841 24.83 13.7 56.6 74 9.1 48.4
06:40 1012 29.88 841 24.83 13.8 56.8 73 9.1 48.4
06:45 1012 29.88 841 24.83 13.9 56.9 73 9.2 48.6
06:50 1012 29.88 841 24.83 14.1 57.3 71 9 48.2
06:55 1012 29.88 841 24.83 14.3 57.7 72 9.3 48.8
07:00 1012 29.88 841 24.83 14.3 57.8 71 9.2 48.5
07:05 1012 29.88 841 24.83 14.5 58 70 9 48.2
07:10 1011 29.85 841 24.83 14.6 58.2 70 9.1 48.4
07:15 1011 29.85 841 24.83 14.7 58.4 69 9.2 48.5
07:20 1012 29.88 841 24.83 14.8 58.6 69 9.1 48.4
07:25 1012 29.88 841 24.83 14.8 58.6 72 9.8 49.7
07:30 1012 29.88 841 24.83 14.6 58.3 72 9.6 49.2
07:35 1012 29.88 841 24.83 14.7 58.4 76 10.4 50.8
07:40 1012 29.88 841 24.83 13.9 57 81 10.7 51.3
07:45 1012 29.88 841 24.83 13.7 56.6 81 10.4 50.7
07:50 1012 29.88 841 24.83 13.7 56.6 81 10.4 50.7
07:55 1012 29.88 841 24.83 13.5 56.2 81 10.4 50.7
08:00 1012 29.88 841 24.83 13.3 55.9 84 10.6 51.2
08:05 1012 29.88 841 24.83 12.9 55.2 85 10.4 50.7
08:10 1012 29.88 841 24.83 13 55.5 84 10.3 50.6
08:15 1012 29.88 841 24.83 13 55.4 84 10.3 50.6
08:20 1012 29.88 841 24.83 13.3 56 82 10.3 50.6
08:25 1012 29.88 841 24.83 13.6 56.4 82 10.5 50.9
08:30 1012 29.88 841 24.83 13.8 56.9 81 10.6 51.1
08:35 1012 29.88 841 24.83 14.1 57.3 79 10.5 50.9
08:40 1012 29.88 841 24.83 14.3 57.8 78 10.5 50.9
08:45 1012 29.88 841 24.83 14.6 58.2 79 10.9 51.7
08:50 1012 29.88 841 24.83 14.3 57.7 80 10.9 51.7
08:55 1012 29.88 841 24.83 14.2 57.5 80 10.8 51.5
09:00 1012 29.88 841 24.83 14 57.1 79 10.4 50.8
09:05 1012 29.88 841 24.83 13.9 57.1 78 10.1 50.3
09:10 1012 29.88 841 24.83 14.1 57.3 78 10.4 50.7
09:15 1012 29.88 841 24.83 14.4 58 76 10.3 50.5
09:20 1012 29.88 841 24.83 14.4 57.8 76 10.3 50.6
09:25 1012 29.88 841 24.83 14.7 58.5 75 10.3 50.5
09:30 1012 29.88 841 24.83 14.9 58.8 75 10.5 50.8
09:35 1012 29.88 841 24.83 15.1 59.1 74 10.6 51.1
09:40 1012 29.88 841 24.83 15.2 59.3 75 10.8 51.4
09:45 1012 29.88 841 24.83 15 59 74 10.5 50.9
09:50 1012 29.88 841 24.83 14.9 58.9 74 10.5 50.9
09:55 1012 29.88 841 24.83 15.9 60.5 71 10.7 51.2
10:00 1012 29.88 841 24.83 16.8 62.2 65 10.2 50.4
10:05 1012 29.88 841 24.83 16 60.8 70 10.6 51
10:10 1012 29.88 841 24.83 16.8 62.2 66 10.5 50.9
10:15 1012 29.88 841 24.83 17.3 63.1 65 10.7 51.2
10:20 1012 29.88 841 24.83 17.9 64.1 65 11.3 52.3
10:25 1012 29.88 841 24.83 17.8 64 63 10.8 51.5
10:30 1012 29.88 841 24.83 17.7 63.8 65 11.1 51.9
10:35 1012 29.88 841 24.83 17.6 63.6 65 10.9 51.7
10:40 1012 29.88 841 24.83 17.5 63.5 65 11 51.9
10:45 1012 29.88 841 24.83 18 64.5 62 10.7 51.3
10:50 1012 29.88 841 24.83 18.8 65.8 58 10.5 50.9
10:55 1012 29.88 841 24.83 18.4 65.1 60 10.7 51.2
11:00 1012 29.88 841 24.83 18.8 65.9 59 10.7 51.3
11:05 1012 29.88 841 24.83 19.1 66.4 56 10.1 50.2
11:10 1011 29.85 841 24.83 19.7 67.4 54 10.2 50.4
11:15 1011 29.85 841 24.83 19.7 67.5 56 10.8 51.4
11:20 1011 29.85 841 24.83 19.9 67.8 58 11.6 52.8
11:25 1011 29.85 841 24.83 19.7 67.5 60 11.9 53.5
11:30 1011 29.85 841 24.83 19.3 66.8 57 10.7 51.2
11:35 1011 29.85 841 24.83 19.4 67 58 11 51.8
11:40 1011 29.85 841 24.83 19.5 67.1 58 11.1 51.9
11:45 1011 29.85 841 24.83 19.6 67.3 59 11.5 52.7
11:50 1011 29.85 840 24.81 19 66.2 61 11.4 52.6
11:55 1011 29.85 840 24.81 18.9 66.1 60 11.1 52
12:00 1011 29.85 840 24.81 18.7 65.6 59 10.5 50.9
12:05 1011 29.85 840 24.81 19.6 67.4 54 10.2 50.3
12:10 1011 29.85 840 24.81 19.3 66.7 57 10.7 51.3
12:15 1011 29.85 840 24.81 18.9 66 60 11 51.8
12:20 1011 29.85 840 24.81 19.2 66.5 55 9.9 49.9
12:25 1011 29.85 840 24.81 19.9 67.9 52 9.8 49.6
12:30 1011 29.85 840 24.81 20 68.1 51 9.6 49.4
12:35 1011 29.85 840 24.81 20.4 68.7 47 8.8 47.9
12:40 1011 29.85 840 24.81 20.9 69.6 47 9.3 48.8
12:45 1011 29.85 840 24.81 20.8 69.5 49 9.8 49.6
12:50 1011 29.85 840 24.81 20.1 68.3 50 9.6 49.3
12:55 1010 29.83 840 24.81 20.9 69.5 49 9.9 49.8
13:00 1010 29.83 840 24.81 20.8 69.4 49 10 49.9
13:05 1010 29.83 839 24.78 21.1 70 48 9.7 49.4
13:10 1010 29.83 839 24.78 20.9 69.5 51 10.5 50.8
13:15 1010 29.83 839 24.78 20 67.9 52 10 50
13:20 1010 29.83 839 24.78 20.9 69.6 49 10.1 50.1
13:25 1010 29.83 839 24.78 21.1 70 50 10.3 50.6
13:30 1010 29.83 839 24.78 19.9 67.7 49 9.1 48.4
13:35 1010 29.83 839 24.78 20.3 68.5 49 9.5 49
13:40 1010 29.83 839 24.78 20.9 69.7 48 9.7 49.5
13:45 1010 29.83 839 24.78 21.5 70.7 48 10.2 50.4
13:50 1011 29.85 840 24.81 20.9 69.6 54 11.4 52.6
13:55 1011 29.85 840 24.81 19.1 66.4 51 8.7 47.7
14:00 1011 29.85 840 24.81 16 60.8 59 8 46.3
14:05 1011 29.85 840 24.81 14.9 58.8 63 8 46.5
14:10 1011 29.85 840 24.81 14.3 57.7 70 8.9 48
14:15 1011 29.85 841 24.83 13.7 56.7 75 9.3 48.8
14:20 1012 29.88 841 24.83 13.1 55.6 77 9.2 48.6
14:25 1013 29.91 842 24.86 12.2 54 82 9.3 48.7
14:30 1013 29.91 842 24.86 11.7 53 83 8.9 48
14:35 1013 29.91 842 24.86 11 51.9 87 8.9 48.1
14:40 1013 29.91 842 24.86 10.9 51.6 88 9 48.1
14:45 1013 29.91 842 24.86 11.1 51.9 88 9.2 48.6
14:50 1013 29.91 842 24.86 11.7 53 88 9.7 49.5
14:55 1012 29.88 842 24.86 12.4 54.3 87 10.4 50.7
15:00 1012 29.88 842 24.86 13 55.4 84 10.3 50.6
15:05 1012 29.88 841 24.83 12.8 55.1 83 10 50
15:10 1012 29.88 841 24.83 13 55.4 84 10.4 50.6
15:15 1012 29.88 841 24.83 13 55.5 85 10.6 51.1
15:20 1012 29.88 841 24.83 13.3 56 83 10.6 51.1
15:25 1012 29.88 841 24.83 13.9 56.9 79 10.3 50.5
15:30 1012 29.88 841 24.83 14.3 57.7 80 10.9 51.6
15:35 1011 29.85 841 24.83 14.7 58.4 79 11 51.9
15:40 1011 29.85 841 24.83 14.6 58.3 75 10.4 50.6
15:45 1012 29.88 841 24.83 14.7 58.5 73 10 50
15:50 1011 29.85 841 24.83 14.8 58.6 74 10.2 50.4
15:55 1011 29.85 841 24.83 14.6 58.3 72 9.7 49.5
16:00 1011 29.85 840 24.81 14.9 58.7 73 10.1 50.1
16:05 1011 29.85 840 24.81 14.9 58.9 75 10.5 51
16:10 1011 29.85 840 24.81 14.9 58.9 79 11.3 52.3
16:15 1011 29.85 840 24.81 14.7 58.5 78 11 51.8
16:20 1011 29.85 840 24.81 15.1 59.1 76 10.9 51.6
16:25 1011 29.85 840 24.81 15.5 59.9 73 10.7 51.2
16:30 1011 29.85 840 24.81 15.4 59.7 72 10.5 50.8
16:35 1011 29.85 840 24.81 15.2 59.4 69 9.5 49.2
16:40 1011 29.85 840 24.81 15.6 60 74 11 51.9
16:45 1011 29.85 840 24.81 16.4 61.4 68 10.4 50.7
16:50 1011 29.85 840 24.81 16.7 62 68 10.9 51.5
16:55 1011 29.85 840 24.81 16.5 61.7 66 10.3 50.5
17:00 1011 29.85 840 24.81 16.5 61.6 62 9.3 48.7
17:05 1011 29.85 840 24.81 16.1 60.9 64 9.4 48.9
17:10 1011 29.85 840 24.81 15.8 60.4 68 9.9 49.8
17:15 1011 29.85 840 24.81 15.9 60.6 64 9.2 48.6
17:20 1011 29.85 840 24.81 15.7 60.3 67 9.6 49.2
17:25 1011 29.85 841 24.83 15.6 60.1 69 10.1 50.1
17:30 1011 29.85 841 24.83 15.8 60.4 71 10.5 50.9
17:35 1011 29.85 841 24.83 16.1 60.9 66 9.8 49.6
17:40 1011 29.85 841 24.83 16.3 61.3 68 10.4 50.8
17:45 1012 29.88 841 24.83 16.2 61.1 69 10.5 51
17:50 1012 29.88 841 24.83 16.2 61.1 66 10 50
17:55 1012 29.88 841 24.83 16.1 60.9 67 10 50
18:00 1012 29.88 841 24.83 15.8 60.5 70 10.5 50.8
18:05 1011 29.85 841 24.83 15.4 59.8 70 10.1 50.2
18:10 1012 29.88 841 24.83 14.8 58.7 75 10.5 50.9
18:15 1012 29.88 841 24.83 15 59.1 73 10.3 50.5
18:20 1012 29.88 841 24.83 15.2 59.4 70 9.9 49.8
18:25 1012 29.88 841 24.83 15.3 59.6 69 9.8 49.6
18:30 1012 29.88 841 24.83 15.4 59.6 69 9.8 49.7
18:35 1012 29.88 841 24.83 15.4 59.7 69 9.9 49.8
18:40 1012 29.88 841 24.83 15.3 59.6 67 9.4 48.9
18:45 1012 29.88 841 24.83 15.3 59.6 71 10.2 50.4
18:50 1012 29.88 842 24.86 15.4 59.7 71 10.3 50.5
18:55 1012 29.88 841 24.83 15.5 59.9 68 9.8 49.6
19:00 1012 29.88 841 24.83 15.6 60.1 68 9.8 49.7
19:05 1012 29.88 841 24.83 15.4 59.7 70 10.1 50.1
19:10 1012 29.88 841 24.83 15.2 59.3 71 10.1 50.2
19:15 1012 29.88 841 24.83 15 59.1 74 10.4 50.7
19:20 1012 29.88 841 24.83 15 59 75 10.7 51.2
19:25 1012 29.88 841 24.83 14.9 58.8 76 10.7 51.3
19:30 1012 29.88 841 24.83 14.8 58.7 78 11.1 52
19:35 1012 29.88 841 24.83 14.8 58.6 78 11 51.8
19:40 1012 29.88 842 24.86 14.5 58.2 79 10.9 51.6
19:45 1012 29.88 842 24.86 14.5 58.2 78 10.7 51.3
19:50 1012 29.88 842 24.86 14.5 58.2 76 10.4 50.7
19:55 1012 29.88 842 24.86 14.6 58.3 74 10.1 50.2
20:00 1012 29.88 842 24.86 14.7 58.4 78 10.8 51.4
20:05 1012 29.88 842 24.86 14.6 58.3 78 10.8 51.5
20:10 1012 29.88 842 24.86 14.7 58.5 79 11.1 52
20:15 1012 29.88 842 24.86 14.8 58.6 77 10.8 51.4
20:20 1012 29.88 842 24.86 14.8 58.6 77 10.8 51.4
20:25 1013 29.91 842 24.86 14.9 58.7 75 10.4 50.8
20:30 1013 29.91 842 24.86 14.8 58.6 76 10.6 51
20:35 1012 29.88 842 24.86 14.7 58.4 77 10.7 51.3
20:40 1012 29.88 842 24.86 14.7 58.4 76 10.4 50.8
20:45 1012 29.88 841 24.83 14.7 58.5 76 10.6 51
20:50 1012 29.88 841 24.83 14.6 58.3 78 10.7 51.3
20:55 1012 29.88 841 24.83 14.5 58 79 10.9 51.6
21:00 1012 29.88 841 24.83 14.2 57.6 80 10.9 51.6
21:05 1012 29.88 841 24.83 14.1 57.4 81 10.9 51.7
21:10 1012 29.88 841 24.83 14 57.2 82 11 51.8
21:15 1012 29.88 842 24.86 14 57.1 82 11 51.8
21:20 1012 29.88 842 24.86 13.9 57.1 83 11 51.9
21:25 1012 29.88 842 24.86 13.9 57.1 82 10.9 51.7
21:30 1013 29.91 842 24.86 13.9 56.9 83 11 51.8
21:35 1013 29.91 842 24.86 13.8 56.8 83 11 51.9
21:40 1013 29.91 842 24.86 13.5 56.4 86 11.3 52.3
21:45 1013 29.91 842 24.86 13.2 55.8 87 11.1 52
21:50 1013 29.91 842 24.86 13.1 55.5 88 11.1 52
21:55 1013 29.91 842 24.86 12.9 55.2 88 11 51.7
22:00 1013 29.91 842 24.86 12.8 55 88 10.8 51.4
22:05 1013 29.91 842 24.86 12.8 55 86 10.6 51
22:10 1013 29.91 842 24.86 12.9 55.2 88 10.9 51.7
22:15 1013 29.91 842 24.86 13.2 55.7 85 10.8 51.4
22:20 1013 29.91 842 24.86 13.2 55.8 82 10.2 50.4
22:25 1013 29.91 842 24.86 13.3 56 81 10.1 50.2
22:30 1013 29.91 842 24.86 13.6 56.4 79 10.1 50.1
22:35 1013 29.91 842 24.86 13.9 57 78 10.2 50.4
22:40 1013 29.91 842 24.86 13.9 57.1 78 10.2 50.4
22:45 1013 29.91 842 24.86 13.9 57.1 79 10.4 50.8
22:50 1013 29.91 842 24.86 13.7 56.7 81 10.6 51
22:55 1013 29.91 842 24.86 13.4 56.2 84 10.7 51.3
23:00 1013 29.91 842 24.86 13.1 55.6 85 10.6 51.2
23:05 1013 29.91 842 24.86 13.1 55.6 82 10.2 50.3
23:10 1013 29.91 842 24.86 13 55.3 81 9.8 49.6
23:15 1013 29.91 842 24.86 12.9 55.3 80 9.6 49.3
23:20 1013 29.91 842 24.86 12.9 55.3 80 9.5 49.1
23:25 1013 29.91 842 24.86 13 55.3 82 10 50
23:30 1013 29.91 842 24.86 12.5 54.4 84 9.9 49.8
23:35 1013 29.91 842 24.86 12.3 54.1 84 9.6 49.4
23:40 1012 29.88 842 24.86 12.4 54.3 82 9.4 48.9
23:45 1012 29.88 842 24.86 12.5 54.5 83 9.7 49.4
23:50 1012 29.88 841 24.83 12.5 54.4 82 9.5 49.1
23:55 1012 29.88 841 24.83 12.5 54.5 85 10 50
24:00 1012 29.88 841 24.83 12.7 54.9 82 9.8 49.7